sensor_id;sensor_type;location;lat;lon;timestamp;P1;durP1;ratioP1;P2;durP2;ratioP2
7495;SDS011;3789;47.064;15.482;2023-04-01T00:00:27;6.20;;;5.60;;
7495;SDS011;3789;47.064;15.482;2023-04-01T00:02:56;6.03;;;5.43;;
7495;SDS011;3789;47.064;15.482;2023-04-01T00:08:54;4.30;;;3.90;;
7495;SDS011;3789;47.064;15.482;2023-04-01T00:11:21;5.13;;;4.63;;
7495;SDS011;3789;47.064;15.482;2023-04-01T00:13:50;4.17;;;3.77;;
7495;SDS011;3789;47.064;15.482;2023-04-01T00:16:21;5.27;;;4.77;;
7495;SDS011;3789;47.064;15.482;2023-04-01T00:18:49;5.40;;;4.90;;
7495;SDS011;3789;47.064;15.482;2023-04-01T00:21:20;5.23;;;4.73;;
7495;SDS011;3789;47.064;15.482;2023-04-01T00:23:49;6.43;;;5.10;;
7495;SDS011;3789;47.064;15.482;2023-04-01T00:26:21;5.50;;;5.00;;
7495;SDS011;3789;47.064;15.482;2023-04-01T00:28:48;4.73;;;4.00;;
7495;SDS011;3789;47.064;15.482;2023-04-01T00:31:19;5.17;;;4.67;;
7495;SDS011;3789;47.064;15.482;2023-04-01T00:33:47;5.30;;;4.80;;
7495;SDS011;3789;47.064;15.482;2023-04-01T00:36:25;4.87;;;4.13;;
7495;SDS011;3789;47.064;15.482;2023-04-01T00:39:04;4.13;;;3.73;;
7495;SDS011;3789;47.064;15.482;2023-04-01T00:41:39;6.67;;;4.20;;
7495;SDS011;3789;47.064;15.482;2023-04-01T00:44:16;4.80;;;4.33;;
7495;SDS011;3789;47.064;15.482;2023-04-01T00:46:50;6.83;;;4.00;;
7495;SDS011;3789;47.064;15.482;2023-04-01T00:49:22;4.40;;;4.00;;
7495;SDS011;3789;47.064;15.482;2023-04-01T00:51:54;3.80;;;3.50;;
7495;SDS011;3789;47.064;15.482;2023-04-01T00:54:32;4.20;;;3.77;;
7495;SDS011;3789;47.064;15.482;2023-04-01T00:57:15;3.70;;;3.40;;
7495;SDS011;3789;47.064;15.482;2023-04-01T01:00:05;4.50;;;3.80;;
7495;SDS011;3789;47.064;15.482;2023-04-01T01:02:37;3.60;;;3.30;;
7495;SDS011;3789;47.064;15.482;2023-04-01T01:05:24;4.57;;;3.27;;
7495;SDS011;3789;47.064;15.482;2023-04-01T01:08:24;3.60;;;3.30;;
7495;SDS011;3789;47.064;15.482;2023-04-01T01:11:25;4.27;;;3.23;;
7495;SDS011;3789;47.064;15.482;2023-04-01T01:17:15;3.83;;;3.07;;
7495;SDS011;3789;47.064;15.482;2023-04-01T01:22:57;4.40;;;3.77;;
7495;SDS011;3789;47.064;15.482;2023-04-01T01:37:23;4.13;;;3.73;;
7495;SDS011;3789;47.064;15.482;2023-04-01T01:39:58;3.57;;;3.27;;
7495;SDS011;3789;47.064;15.482;2023-04-01T01:42:35;3.73;;;3.43;;
7495;SDS011;3789;47.064;15.482;2023-04-01T01:45:12;3.90;;;3.50;;
7495;SDS011;3789;47.064;15.482;2023-04-01T01:47:47;5.10;;;3.70;;
7495;SDS011;3789;47.064;15.482;2023-04-01T01:50:25;3.23;;;2.93;;
7495;SDS011;3789;47.064;15.482;2023-04-01T01:53:09;3.53;;;3.23;;
7495;SDS011;3789;47.064;15.482;2023-04-01T01:55:43;3.60;;;3.30;;
7495;SDS011;3789;47.064;15.482;2023-04-01T01:58:17;3.50;;;3.20;;
7495;SDS011;3789;47.064;15.482;2023-04-01T02:01:16;3.63;;;3.33;;
7495;SDS011;3789;47.064;15.482;2023-04-01T02:03:50;4.30;;;3.60;;
7495;SDS011;3789;47.064;15.482;2023-04-01T02:06:23;3.60;;;3.30;;
7495;SDS011;3789;47.064;15.482;2023-04-01T02:09:00;3.47;;;2.50;;
7495;SDS011;3789;47.064;15.482;2023-04-01T02:11:52;3.60;;;3.30;;
7495;SDS011;3789;47.064;15.482;2023-04-01T02:17:19;3.57;;;3.20;;
7495;SDS011;3789;47.064;15.482;2023-04-01T02:20:28;3.50;;;3.10;;
7495;SDS011;3789;47.064;15.482;2023-04-01T02:22:51;3.23;;;2.93;;
7495;SDS011;3789;47.064;15.482;2023-04-01T02:25:26;3.53;;;3.20;;
7495;SDS011;3789;47.064;15.482;2023-04-01T02:28:11;3.97;;;3.57;;
7495;SDS011;3789;47.064;15.482;2023-04-01T02:30:51;3.50;;;3.20;;
7495;SDS011;3789;47.064;15.482;2023-04-01T02:33:25;3.97;;;3.53;;
7495;SDS011;3789;47.064;15.482;2023-04-01T02:35:54;4.03;;;3.63;;
7495;SDS011;3789;47.064;15.482;2023-04-01T02:38:24;4.10;;;3.73;;
7495;SDS011;3789;47.064;15.482;2023-04-01T02:40:59;4.03;;;3.63;;
7495;SDS011;3789;47.064;15.482;2023-04-01T02:43:28;3.97;;;3.57;;
7495;SDS011;3789;47.064;15.482;2023-04-01T02:45:58;3.90;;;3.60;;
7495;SDS011;3789;47.064;15.482;2023-04-01T02:48:32;4.23;;;3.60;;
7495;SDS011;3789;47.064;15.482;2023-04-01T02:51:00;3.97;;;3.67;;
7495;SDS011;3789;47.064;15.482;2023-04-01T02:53:32;5.23;;;3.63;;
7495;SDS011;3789;47.064;15.482;2023-04-01T02:56:01;3.67;;;2.80;;
7495;SDS011;3789;47.064;15.482;2023-04-01T02:58:33;3.93;;;3.43;;
7495;SDS011;3789;47.064;15.482;2023-04-01T03:01:05;3.63;;;3.33;;
7495;SDS011;3789;47.064;15.482;2023-04-01T03:03:38;3.93;;;3.53;;
7495;SDS011;3789;47.064;15.482;2023-04-01T03:06:14;3.90;;;3.50;;
7495;SDS011;3789;47.064;15.482;2023-04-01T03:08:45;4.17;;;3.60;;
7495;SDS011;3789;47.064;15.482;2023-04-01T03:11:14;4.13;;;3.17;;
7495;SDS011;3789;47.064;15.482;2023-04-01T03:13:44;3.90;;;3.50;;
7495;SDS011;3789;47.064;15.482;2023-04-01T03:16:14;4.10;;;3.70;;
7495;SDS011;3789;47.064;15.482;2023-04-01T03:18:44;3.60;;;3.30;;
7495;SDS011;3789;47.064;15.482;2023-04-01T03:21:14;3.90;;;3.40;;
7495;SDS011;3789;47.064;15.482;2023-04-01T03:23:44;6.47;;;3.00;;
7495;SDS011;3789;47.064;15.482;2023-04-01T03:26:14;4.33;;;3.17;;
7495;SDS011;3789;47.064;15.482;2023-04-01T03:28:52;3.33;;;3.03;;
7495;SDS011;3789;47.064;15.482;2023-04-01T03:31:21;3.20;;;2.93;;
7495;SDS011;3789;47.064;15.482;2023-04-01T03:33:49;3.23;;;2.90;;
7495;SDS011;3789;47.064;15.482;2023-04-01T03:36:18;3.00;;;2.70;;
7495;SDS011;3789;47.064;15.482;2023-04-01T03:38:48;2.77;;;2.57;;
7495;SDS011;3789;47.064;15.482;2023-04-01T03:41:17;3.50;;;2.87;;
7495;SDS011;3789;47.064;15.482;2023-04-01T03:43:53;4.10;;;3.70;;
7495;SDS011;3789;47.064;15.482;2023-04-01T03:46:26;4.80;;;4.40;;
7495;SDS011;3789;47.064;15.482;2023-04-01T03:48:56;4.70;;;3.20;;
7495;SDS011;3789;47.064;15.482;2023-04-01T03:51:32;4.17;;;2.90;;
7495;SDS011;3789;47.064;15.482;2023-04-01T03:54:01;3.53;;;3.23;;
7495;SDS011;3789;47.064;15.482;2023-04-01T03:56:31;3.43;;;3.10;;
7495;SDS011;3789;47.064;15.482;2023-04-01T03:59:08;3.13;;;2.83;;
7495;SDS011;3789;47.064;15.482;2023-04-01T04:01:41;4.43;;;2.80;;
7495;SDS011;3789;47.064;15.482;2023-04-01T04:04:10;3.97;;;2.70;;
7495;SDS011;3789;47.064;15.482;2023-04-01T04:06:58;3.20;;;2.90;;
7495;SDS011;3789;47.064;15.482;2023-04-01T04:09:30;3.43;;;3.13;;
7495;SDS011;3789;47.064;15.482;2023-04-01T04:12:01;3.07;;;2.77;;
7495;SDS011;3789;47.064;15.482;2023-04-01T04:14:30;4.57;;;2.90;;
7495;SDS011;3789;47.064;15.482;2023-04-01T04:17:06;2.87;;;2.67;;
7495;SDS011;3789;47.064;15.482;2023-04-01T04:19:42;2.90;;;2.70;;
7495;SDS011;3789;47.064;15.482;2023-04-01T04:22:13;3.37;;;3.07;;
7495;SDS011;3789;47.064;15.482;2023-04-01T04:24:44;3.53;;;3.20;;
7495;SDS011;3789;47.064;15.482;2023-04-01T04:27:19;3.63;;;3.33;;
7495;SDS011;3789;47.064;15.482;2023-04-01T04:29:48;5.07;;;4.03;;
7495;SDS011;3789;47.064;15.482;2023-04-01T04:32:18;3.90;;;3.50;;
7495;SDS011;3789;47.064;15.482;2023-04-01T04:34:48;3.90;;;3.60;;
7495;SDS011;3789;47.064;15.482;2023-04-01T04:37:15;4.23;;;3.87;;
7495;SDS011;3789;47.064;15.482;2023-04-01T04:39:45;4.20;;;3.80;;
7495;SDS011;3789;47.064;15.482;2023-04-01T04:42:12;4.83;;;3.83;;
7495;SDS011;3789;47.064;15.482;2023-04-01T04:44:43;4.00;;;3.60;;
7495;SDS011;3789;47.064;15.482;2023-04-01T04:47:12;4.60;;;4.20;;
7495;SDS011;3789;47.064;15.482;2023-04-01T04:49:41;4.33;;;3.93;;
7495;SDS011;3789;47.064;15.482;2023-04-01T04:52:08;4.43;;;4.03;;
7495;SDS011;3789;47.064;15.482;2023-04-01T04:54:39;5.73;;;5.13;;
7495;SDS011;3789;47.064;15.482;2023-04-01T04:57:07;6.33;;;5.73;;
7495;SDS011;3789;47.064;15.482;2023-04-01T04:59:38;7.63;;;6.83;;
7495;SDS011;3789;47.064;15.482;2023-04-01T05:02:32;14.07;;;10.63;;
7495;SDS011;3789;47.064;15.482;2023-04-01T05:05:05;10.37;;;8.70;;
7495;SDS011;3789;47.064;15.482;2023-04-01T05:07:43;9.33;;;7.30;;
7495;SDS011;3789;47.064;15.482;2023-04-01T05:10:12;9.90;;;7.83;;
7495;SDS011;3789;47.064;15.482;2023-04-01T05:12:43;8.93;;;6.90;;
7495;SDS011;3789;47.064;15.482;2023-04-01T05:15:14;10.30;;;8.33;;
7495;SDS011;3789;47.064;15.482;2023-04-01T05:17:43;9.97;;;7.10;;
7495;SDS011;3789;47.064;15.482;2023-04-01T05:20:13;5.50;;;4.80;;
7495;SDS011;3789;47.064;15.482;2023-04-01T05:22:44;7.87;;;5.17;;
7495;SDS011;3789;47.064;15.482;2023-04-01T05:25:14;5.57;;;4.57;;
7495;SDS011;3789;47.064;15.482;2023-04-01T05:27:42;4.83;;;4.37;;
7495;SDS011;3789;47.064;15.482;2023-04-01T05:30:17;4.63;;;4.23;;
7495;SDS011;3789;47.064;15.482;2023-04-01T05:32:49;4.00;;;3.57;;
7495;SDS011;3789;47.064;15.482;2023-04-01T05:35:25;7.50;;;5.67;;
7495;SDS011;3789;47.064;15.482;2023-04-01T05:37:55;7.73;;;6.23;;
7495;SDS011;3789;47.064;15.482;2023-04-01T05:40:22;6.23;;;5.63;;
7495;SDS011;3789;47.064;15.482;2023-04-01T05:42:52;6.10;;;5.47;;
7495;SDS011;3789;47.064;15.482;2023-04-01T05:45:27;5.60;;;4.97;;
7495;SDS011;3789;47.064;15.482;2023-04-01T05:47:55;6.17;;;5.50;;
7495;SDS011;3789;47.064;15.482;2023-04-01T05:50:26;3.37;;;3.10;;
7495;SDS011;3789;47.064;15.482;2023-04-01T05:52:56;5.00;;;3.70;;
7495;SDS011;3789;47.064;15.482;2023-04-01T05:55:28;4.40;;;3.37;;
7495;SDS011;3789;47.064;15.482;2023-04-01T05:57:58;3.70;;;3.37;;
7495;SDS011;3789;47.064;15.482;2023-04-01T06:00:27;4.47;;;4.07;;
7495;SDS011;3789;47.064;15.482;2023-04-01T06:02:58;5.10;;;3.83;;
7495;SDS011;3789;47.064;15.482;2023-04-01T06:05:38;3.50;;;3.10;;
7495;SDS011;3789;47.064;15.482;2023-04-01T06:08:21;4.40;;;4.00;;
7495;SDS011;3789;47.064;15.482;2023-04-01T06:26:01;3.90;;;3.33;;
7495;SDS011;3789;47.064;15.482;2023-04-01T06:47:23;1.90;;;1.80;;
7495;SDS011;3789;47.064;15.482;2023-04-01T06:56:05;2.22;;;2.00;;
7495;SDS011;3789;47.064;15.482;2023-04-01T06:58:51;2.40;;;1.90;;
7495;SDS011;3789;47.064;15.482;2023-04-01T07:01:29;2.40;;;2.13;;
7495;SDS011;3789;47.064;15.482;2023-04-01T07:04:14;2.40;;;2.20;;
7495;SDS011;3789;47.064;15.482;2023-04-01T07:07:04;2.72;;;2.22;;
7495;SDS011;3789;47.064;15.482;2023-04-01T07:09:58;2.65;;;1.90;;
7495;SDS011;3789;47.064;15.482;2023-04-01T07:12:53;2.17;;;1.80;;
7495;SDS011;3789;47.064;15.482;2023-04-01T07:15:28;2.15;;;1.95;;
7495;SDS011;3789;47.064;15.482;2023-04-01T07:18:27;2.22;;;1.98;;
7495;SDS011;3789;47.064;15.482;2023-04-01T07:21:10;2.17;;;1.98;;
7495;SDS011;3789;47.064;15.482;2023-04-01T07:24:54;1.70;;;1.60;;
7495;SDS011;3789;47.064;15.482;2023-04-01T07:27:10;2.15;;;1.65;;
7495;SDS011;3789;47.064;15.482;2023-04-01T07:29:40;2.33;;;2.00;;
7495;SDS011;3789;47.064;15.482;2023-04-01T07:35:15;3.83;;;2.00;;
7495;SDS011;3789;47.064;15.482;2023-04-01T07:44:25;2.37;;;2.17;;
7495;SDS011;3789;47.064;15.482;2023-04-01T07:53:38;1.93;;;1.80;;
7495;SDS011;3789;47.064;15.482;2023-04-01T07:56:41;2.13;;;1.87;;
7495;SDS011;3789;47.064;15.482;2023-04-01T08:02:43;2.77;;;1.80;;
7495;SDS011;3789;47.064;15.482;2023-04-01T08:09:04;2.63;;;2.43;;
7495;SDS011;3789;47.064;15.482;2023-04-01T08:21:42;4.10;;;3.70;;
7495;SDS011;3789;47.064;15.482;2023-04-01T08:24:37;5.27;;;3.30;;
7495;SDS011;3789;47.064;15.482;2023-04-01T08:32:54;3.03;;;2.72;;
7495;SDS011;3789;47.064;15.482;2023-04-01T08:35:37;3.60;;;2.65;;
7495;SDS011;3789;47.064;15.482;2023-04-01T08:38:29;3.35;;;2.55;;
7495;SDS011;3789;47.064;15.482;2023-04-01T08:47:37;2.50;;;2.22;;
7495;SDS011;3789;47.064;15.482;2023-04-01T08:54:00;2.55;;;1.88;;
7495;SDS011;3789;47.064;15.482;2023-04-01T08:57:00;3.80;;;2.47;;
7495;SDS011;3789;47.064;15.482;2023-04-01T09:09:10;1.88;;;1.73;;
7495;SDS011;3789;47.064;15.482;2023-04-01T09:20:01;1.98;;;1.80;;
7495;SDS011;3789;47.064;15.482;2023-04-01T09:22:39;2.58;;;1.95;;
7495;SDS011;3789;47.064;15.482;2023-04-01T09:40:56;2.63;;;1.60;;
7495;SDS011;3789;47.064;15.482;2023-04-01T09:47:00;1.67;;;1.58;;
7495;SDS011;3789;47.064;15.482;2023-04-01T10:01:52;1.35;;;1.25;;
7495;SDS011;3789;47.064;15.482;2023-04-01T10:11:00;1.67;;;1.55;;
7495;SDS011;3789;47.064;15.482;2023-04-01T10:14:40;1.30;;;1.20;;
7495;SDS011;3789;47.064;15.482;2023-04-01T10:20:14;1.65;;;1.55;;
7495;SDS011;3789;47.064;15.482;2023-04-01T10:23:01;1.70;;;1.60;;
7495;SDS011;3789;47.064;15.482;2023-04-01T10:38:14;1.57;;;1.10;;
7495;SDS011;3789;47.064;15.482;2023-04-01T10:41:24;2.17;;;1.10;;
7495;SDS011;3789;47.064;15.482;2023-04-01T11:11:17;0.77;;;0.77;;
7495;SDS011;3789;47.064;15.482;2023-04-01T11:17:50;0.98;;;0.73;;
7495;SDS011;3789;47.064;15.482;2023-04-01T11:44:32;0.60;;;0.60;;
7495;SDS011;3789;47.064;15.482;2023-04-01T11:47:22;0.50;;;0.50;;
7495;SDS011;3789;47.064;15.482;2023-04-01T11:53:19;0.60;;;0.60;;
7495;SDS011;3789;47.064;15.482;2023-04-01T11:56:07;0.60;;;0.60;;
7495;SDS011;3789;47.064;15.482;2023-04-01T11:59:08;0.73;;;0.50;;
7495;SDS011;3789;47.064;15.482;2023-04-01T12:09:01;0.52;;;0.50;;
7495;SDS011;3789;47.064;15.482;2023-04-01T12:26:12;0.50;;;0.50;;
7495;SDS011;3789;47.064;15.482;2023-04-01T12:29:48;0.55;;;0.55;;
7495;SDS011;3789;47.064;15.482;2023-04-01T12:33:26;0.98;;;0.88;;
7495;SDS011;3789;47.064;15.482;2023-04-01T12:35:55;1.02;;;0.88;;
7495;SDS011;3789;47.064;15.482;2023-04-01T12:41:49;0.80;;;0.80;;
7495;SDS011;3789;47.064;15.482;2023-04-01T13:08:13;0.50;;;0.50;;
7495;SDS011;3789;47.064;15.482;2023-04-01T13:23:40;1.85;;;1.70;;
7495;SDS011;3789;47.064;15.482;2023-04-01T13:30:07;3.03;;;2.60;;
7495;SDS011;3789;47.064;15.482;2023-04-01T13:44:09;1.05;;;0.90;;
7495;SDS011;3789;47.064;15.482;2023-04-01T13:59:48;0.80;;;0.60;;
7495;SDS011;3789;47.064;15.482;2023-04-01T14:02:44;0.45;;;0.45;;
7495;SDS011;3789;47.064;15.482;2023-04-01T14:14:46;0.43;;;0.43;;
7495;SDS011;3789;47.064;15.482;2023-04-01T14:17:45;0.50;;;0.50;;
7495;SDS011;3789;47.064;15.482;2023-04-01T14:26:35;0.57;;;0.57;;
7495;SDS011;3789;47.064;15.482;2023-04-01T14:35:45;0.55;;;0.55;;
7495;SDS011;3789;47.064;15.482;2023-04-01T14:41:47;1.08;;;0.90;;
7495;SDS011;3789;47.064;15.482;2023-04-01T14:50:48;0.60;;;0.60;;
7495;SDS011;3789;47.064;15.482;2023-04-01T14:55:54;0.60;;;0.60;;
7495;SDS011;3789;47.064;15.482;2023-04-01T14:59:06;0.70;;;0.70;;
7495;SDS011;3789;47.064;15.482;2023-04-01T15:01:45;0.70;;;0.70;;
7495;SDS011;3789;47.064;15.482;2023-04-01T15:10:12;0.55;;;0.55;;
7495;SDS011;3789;47.064;15.482;2023-04-01T15:13:30;0.65;;;0.65;;
7495;SDS011;3789;47.064;15.482;2023-04-01T15:36:40;0.50;;;0.50;;
7495;SDS011;3789;47.064;15.482;2023-04-01T15:42:34;0.60;;;0.60;;
7495;SDS011;3789;47.064;15.482;2023-04-01T15:45:49;0.88;;;0.80;;
7495;SDS011;3789;47.064;15.482;2023-04-01T16:00:34;0.80;;;0.80;;
7495;SDS011;3789;47.064;15.482;2023-04-01T16:21:46;0.80;;;0.80;;
7495;SDS011;3789;47.064;15.482;2023-04-01T16:27:02;1.10;;;0.73;;
7495;SDS011;3789;47.064;15.482;2023-04-01T16:32:51;0.70;;;0.70;;
7495;SDS011;3789;47.064;15.482;2023-04-01T16:35:49;0.83;;;0.80;;
7495;SDS011;3789;47.064;15.482;2023-04-01T16:38:43;0.60;;;0.60;;
7495;SDS011;3789;47.064;15.482;2023-04-01T16:45:37;0.90;;;0.90;;
7495;SDS011;3789;47.064;15.482;2023-04-01T16:47:53;1.17;;;0.90;;
7495;SDS011;3789;47.064;15.482;2023-04-01T16:50:52;1.03;;;0.90;;
7495;SDS011;3789;47.064;15.482;2023-04-01T16:56:44;0.90;;;0.90;;
7495;SDS011;3789;47.064;15.482;2023-04-01T16:59:35;1.40;;;1.30;;
7495;SDS011;3789;47.064;15.482;2023-04-01T17:02:28;1.17;;;1.00;;
7495;SDS011;3789;47.064;15.482;2023-04-01T17:05:05;1.77;;;1.13;;
7495;SDS011;3789;47.064;15.482;2023-04-01T17:14:02;1.00;;;1.00;;
7495;SDS011;3789;47.064;15.482;2023-04-01T17:19:32;1.13;;;1.03;;
7495;SDS011;3789;47.064;15.482;2023-04-01T17:25:42;0.90;;;0.90;;
7495;SDS011;3789;47.064;15.482;2023-04-01T17:28:31;1.10;;;1.00;;
7495;SDS011;3789;47.064;15.482;2023-04-01T17:49:26;2.10;;;1.30;;
7495;SDS011;3789;47.064;15.482;2023-04-01T17:52:17;1.20;;;1.10;;
7495;SDS011;3789;47.064;15.482;2023-04-01T17:57:54;1.40;;;1.30;;
7495;SDS011;3789;47.064;15.482;2023-04-01T18:04:22;1.50;;;1.40;;
7495;SDS011;3789;47.064;15.482;2023-04-01T18:16:07;1.90;;;1.70;;
7495;SDS011;3789;47.064;15.482;2023-04-01T18:22:21;2.63;;;2.13;;
7495;SDS011;3789;47.064;15.482;2023-04-01T18:31:26;2.27;;;1.80;;
7495;SDS011;3789;47.064;15.482;2023-04-01T18:43:18;0.80;;;0.80;;
7495;SDS011;3789;47.064;15.482;2023-04-01T18:46:27;1.77;;;1.60;;
7495;SDS011;3789;47.064;15.482;2023-04-01T18:52:39;1.27;;;1.13;;
7495;SDS011;3789;47.064;15.482;2023-04-01T19:01:27;1.40;;;1.30;;
7495;SDS011;3789;47.064;15.482;2023-04-01T19:22:13;2.07;;;1.83;;
7495;SDS011;3789;47.064;15.482;2023-04-01T19:25:21;1.60;;;1.50;;
7495;SDS011;3789;47.064;15.482;2023-04-01T19:28:49;1.70;;;1.50;;
7495;SDS011;3789;47.064;15.482;2023-04-01T19:37:39;2.40;;;1.80;;
7495;SDS011;3789;47.064;15.482;2023-04-01T19:43:24;2.07;;;1.90;;
7495;SDS011;3789;47.064;15.482;2023-04-01T19:46:36;2.40;;;1.40;;
7495;SDS011;3789;47.064;15.482;2023-04-01T19:55:39;2.30;;;2.10;;
7495;SDS011;3789;47.064;15.482;2023-04-01T19:58:26;2.60;;;1.80;;
7495;SDS011;3789;47.064;15.482;2023-04-01T20:01:13;1.87;;;1.57;;
7495;SDS011;3789;47.064;15.482;2023-04-01T20:04:12;2.00;;;1.80;;
7495;SDS011;3789;47.064;15.482;2023-04-01T20:15:39;1.40;;;1.30;;
7495;SDS011;3789;47.064;15.482;2023-04-01T20:18:18;1.30;;;1.20;;
7495;SDS011;3789;47.064;15.482;2023-04-01T20:21:30;1.10;;;1.10;;
7495;SDS011;3789;47.064;15.482;2023-04-01T20:24:23;1.20;;;1.10;;
7495;SDS011;3789;47.064;15.482;2023-04-01T20:27:03;2.00;;;1.30;;
7495;SDS011;3789;47.064;15.482;2023-04-01T20:33:42;1.50;;;1.40;;
7495;SDS011;3789;47.064;15.482;2023-04-01T20:39:26;2.37;;;1.70;;
7495;SDS011;3789;47.064;15.482;2023-04-01T20:57:51;3.60;;;3.30;;
7495;SDS011;3789;47.064;15.482;2023-04-01T21:06:29;3.43;;;2.80;;
7495;SDS011;3789;47.064;15.482;2023-04-01T21:21:35;2.20;;;2.00;;
7495;SDS011;3789;47.064;15.482;2023-04-01T21:24:43;1.73;;;1.60;;
7495;SDS011;3789;47.064;15.482;2023-04-01T21:30:52;9.13;;;6.87;;
7495;SDS011;3789;47.064;15.482;2023-04-01T21:34:55;4.27;;;3.40;;
7495;SDS011;3789;47.064;15.482;2023-04-01T21:51:54;1.57;;;1.47;;
7495;SDS011;3789;47.064;15.482;2023-04-01T22:01:03;1.57;;;1.40;;
7495;SDS011;3789;47.064;15.482;2023-04-01T22:07:17;1.60;;;1.50;;
7495;SDS011;3789;47.064;15.482;2023-04-01T22:12:56;1.50;;;1.30;;
7495;SDS011;3789;47.064;15.482;2023-04-01T22:16:23;1.50;;;1.40;;
7495;SDS011;3789;47.064;15.482;2023-04-01T22:19:23;1.73;;;1.60;;
7495;SDS011;3789;47.064;15.482;2023-04-01T22:22:06;2.27;;;1.87;;
7495;SDS011;3789;47.064;15.482;2023-04-01T22:45:07;2.43;;;1.57;;
7495;SDS011;3789;47.064;15.482;2023-04-01T22:48:09;1.73;;;1.60;;
7495;SDS011;3789;47.064;15.482;2023-04-01T22:51:27;1.60;;;1.50;;
7495;SDS011;3789;47.064;15.482;2023-04-01T22:57:02;2.70;;;1.60;;
7495;SDS011;3789;47.064;15.482;2023-04-01T22:59:54;2.60;;;1.73;;
7495;SDS011;3789;47.064;15.482;2023-04-01T23:02:39;1.50;;;1.40;;
7495;SDS011;3789;47.064;15.482;2023-04-01T23:05:16;1.50;;;1.40;;
7495;SDS011;3789;47.064;15.482;2023-04-01T23:11:06;2.77;;;1.40;;
7495;SDS011;3789;47.064;15.482;2023-04-01T23:13:45;1.83;;;1.60;;
7495;SDS011;3789;47.064;15.482;2023-04-01T23:26:24;1.70;;;1.60;;
7495;SDS011;3789;47.064;15.482;2023-04-01T23:28:54;3.33;;;1.70;;
7495;SDS011;3789;47.064;15.482;2023-04-01T23:32:04;1.80;;;1.70;;
7495;SDS011;3789;47.064;15.482;2023-04-01T23:34:35;1.77;;;1.67;;
7495;SDS011;3789;47.064;15.482;2023-04-01T23:37:10;1.87;;;1.77;;
7495;SDS011;3789;47.064;15.482;2023-04-01T23:39:42;2.33;;;1.67;;
7495;SDS011;3789;47.064;15.482;2023-04-01T23:42:18;2.70;;;1.93;;
7495;SDS011;3789;47.064;15.482;2023-04-01T23:45:17;1.93;;;1.80;;
7495;SDS011;3789;47.064;15.482;2023-04-01T23:47:53;2.30;;;2.10;;
7495;SDS011;3789;47.064;15.482;2023-04-01T23:50:24;1.80;;;1.70;;
7495;SDS011;3789;47.064;15.482;2023-04-01T23:52:59;2.10;;;1.90;;
7495;SDS011;3789;47.064;15.482;2023-04-01T23:55:31;1.80;;;1.70;;
